createdAt,value
2018-11-11T00:03:08.678Z,9.75
2018-11-11T00:06:33.487Z,11.60
2018-11-11T00:09:58.224Z,9.03
2018-11-11T00:13:22.959Z,8.60
2018-11-11T00:16:47.677Z,6.93
2018-11-11T00:20:13.110Z,6.63
2018-11-11T00:23:37.838Z,7.28
2018-11-11T00:27:02.720Z,6.80
2018-11-11T00:30:27.561Z,4.72
2018-11-11T00:33:52.347Z,5.03
2018-11-11T00:37:17.086Z,6.37
2018-11-11T00:40:41.885Z,7.85
2018-11-11T00:44:06.984Z,5.50
2018-11-11T00:47:31.738Z,7.25
2018-11-11T00:50:56.467Z,5.70
2018-11-11T00:54:21.238Z,6.43
2018-11-11T00:57:46.372Z,4.92
2018-11-11T01:01:11.129Z,3.83
2018-11-11T01:04:35.904Z,3.40
2018-11-11T01:08:00.610Z,3.50
2018-11-11T01:11:25.309Z,4.58
2018-11-11T01:14:50.043Z,4.03
2018-11-11T01:18:14.743Z,3.63
2018-11-11T01:21:39.479Z,5.20
2018-11-11T01:25:04.257Z,4.28
2018-11-11T01:28:28.926Z,3.55
2018-11-11T01:31:53.654Z,4.10
2018-11-11T01:35:18.425Z,3.65
2018-11-11T01:38:43.149Z,3.27
2018-11-11T01:42:08.480Z,3.92
2018-11-11T01:45:33.780Z,4.17
2018-11-11T01:48:58.493Z,4.13
2018-11-11T01:52:23.255Z,4.28
2018-11-11T01:55:48.019Z,3.77
2018-11-11T01:59:12.770Z,4.00
2018-11-11T02:02:37.515Z,3.67
2018-11-11T02:06:02.183Z,5.63
2018-11-11T02:09:26.892Z,8.33
2018-11-11T02:12:51.642Z,6.17
2018-11-11T02:16:16.330Z,3.90
2018-11-11T02:19:41.305Z,3.80
2018-11-11T02:23:06.172Z,3.10
2018-11-11T02:26:30.950Z,2.70
2018-11-11T02:29:55.696Z,2.72
2018-11-11T02:33:20.479Z,2.67
2018-11-11T02:36:45.160Z,2.80
2018-11-11T02:40:15.075Z,2.33
2018-11-11T02:43:39.763Z,2.40
2018-11-11T02:47:04.528Z,2.70
2018-11-11T02:50:29.250Z,2.43
2018-11-11T02:53:53.923Z,2.72
2018-11-11T02:57:18.542Z,2.50
2018-11-11T03:00:43.236Z,3.02
2018-11-11T03:04:07.989Z,3.00
2018-11-11T03:07:32.660Z,2.60
2018-11-11T03:10:57.295Z,2.30
2018-11-11T03:14:21.975Z,2.63
2018-11-11T03:17:46.683Z,2.60
2018-11-11T03:21:11.357Z,2.90
2018-11-11T03:24:36.043Z,3.47
2018-11-11T03:28:00.693Z,2.90
2018-11-11T03:31:25.402Z,3.37
2018-11-11T03:34:50.105Z,2.90
2018-11-11T03:38:14.750Z,4.12
2018-11-11T03:41:39.838Z,3.58
2018-11-11T03:45:04.557Z,4.45
2018-11-11T03:48:29.235Z,2.65
2018-11-11T03:51:53.914Z,2.95
2018-11-11T03:55:18.724Z,2.50
2018-11-11T03:58:43.453Z,3.17
2018-11-11T04:02:08.140Z,2.83
2018-11-11T04:05:32.753Z,2.98
2018-11-11T04:08:57.415Z,2.70
2018-11-11T04:12:22.092Z,2.70
2018-11-11T04:15:46.786Z,3.50
2018-11-11T04:19:11.493Z,2.65
2018-11-11T04:22:36.163Z,3.50
2018-11-11T04:26:00.894Z,2.60
2018-11-11T04:29:25.555Z,3.00
2018-11-11T04:32:50.253Z,2.60
2018-11-11T04:36:14.889Z,2.58
2018-11-11T04:39:40.083Z,2.02
2018-11-11T04:43:04.821Z,3.12
2018-11-11T04:46:29.514Z,2.43
2018-11-11T04:49:54.433Z,3.55
2018-11-11T04:53:19.095Z,2.17
2018-11-11T04:56:43.776Z,3.05
2018-11-11T05:00:10.603Z,2.85
2018-11-11T05:03:35.275Z,2.77
2018-11-11T05:06:59.958Z,2.22
2018-11-11T05:10:24.640Z,2.33
2018-11-11T05:13:49.302Z,2.72
2018-11-11T05:17:14.038Z,2.60
2018-11-11T05:20:38.684Z,3.33
2018-11-11T05:24:03.632Z,4.87
2018-11-11T05:27:28.360Z,3.87
2018-11-11T05:30:53.099Z,5.17
2018-11-11T05:34:17.691Z,5.50
2018-11-11T05:37:42.863Z,5.87
2018-11-11T05:41:07.783Z,3.20
2018-11-11T05:44:32.480Z,3.37
2018-11-11T05:47:57.217Z,2.98
2018-11-11T05:51:21.905Z,3.12
2018-11-11T05:54:46.921Z,2.50
2018-11-11T05:58:11.725Z,2.63
2018-11-11T06:01:36.672Z,3.65
2018-11-11T06:05:01.345Z,2.33
2018-11-11T06:08:26.236Z,2.43
2018-11-11T06:11:50.904Z,2.80
2018-11-11T06:15:15.733Z,2.73
2018-11-11T06:18:40.447Z,3.33
2018-11-11T06:22:09.791Z,3.33
2018-11-11T06:25:35.240Z,3.73
2018-11-11T06:29:00.045Z,2.77
2018-11-11T06:32:24.810Z,3.40
2018-11-11T06:35:49.572Z,4.07
2018-11-11T06:39:14.544Z,3.67
2018-11-11T06:42:39.536Z,3.27
2018-11-11T06:46:04.274Z,3.30
2018-11-11T06:49:29.050Z,3.07
2018-11-11T06:52:53.821Z,3.93
2018-11-11T06:56:18.471Z,3.03
2018-11-11T06:59:43.542Z,2.20
2018-11-11T07:03:25.034Z,2.97
2018-11-11T07:14:41.246Z,3.30
2018-11-11T07:18:06.173Z,3.27
2018-11-11T07:21:30.815Z,2.30
2018-11-11T07:24:55.479Z,2.07
2018-11-11T07:28:20.128Z,2.87
2018-11-11T07:31:45.028Z,2.50
2018-11-11T07:35:10.616Z,2.67
2018-11-11T07:38:35.265Z,1.97
2018-11-11T07:42:00.242Z,1.80
2018-11-11T07:45:25.119Z,1.60
2018-11-11T07:48:49.762Z,1.90
2018-11-11T07:52:14.428Z,2.53
2018-11-11T07:55:39.237Z,1.70
2018-11-11T07:59:04.175Z,2.27
2018-11-11T08:02:28.794Z,1.87
2018-11-11T08:05:53.495Z,1.50
2018-11-11T08:09:18.302Z,1.80
2018-11-11T08:12:43.205Z,1.57
2018-11-11T08:16:08.021Z,1.80
2018-11-11T08:19:32.932Z,2.27
2018-11-11T08:22:57.834Z,2.17
2018-11-11T08:26:22.511Z,1.75
2018-11-11T08:29:47.276Z,1.98
2018-11-11T08:33:11.966Z,1.60
2018-11-11T08:36:36.766Z,2.35
2018-11-11T08:40:01.515Z,1.70
2018-11-11T08:43:26.240Z,1.73
2018-11-11T08:46:50.955Z,1.50
2018-11-11T08:50:15.704Z,1.80
2018-11-11T08:53:40.378Z,1.70
2018-11-11T08:57:05.290Z,2.00
2018-11-11T09:00:29.951Z,1.52
2018-11-11T09:03:54.581Z,1.17
2018-11-11T09:07:19.404Z,1.52
2018-11-11T09:10:44.060Z,1.35
2018-11-11T09:14:08.736Z,1.77
2018-11-11T09:17:33.492Z,1.30
2018-11-11T09:20:58.205Z,1.80
2018-11-11T09:24:22.851Z,1.60
2018-11-11T09:27:47.565Z,2.10
2018-11-11T09:31:12.257Z,1.10
2018-11-11T09:34:36.928Z,1.10
2018-11-11T09:38:01.765Z,1.05
2018-11-11T09:41:26.463Z,1.67
2018-11-11T09:44:51.223Z,1.60
2018-11-11T09:48:15.876Z,1.20
2018-11-11T09:51:40.576Z,1.37
2018-11-11T09:55:06.050Z,1.30
2018-11-11T09:58:30.845Z,1.20
2018-11-11T10:01:55.808Z,1.15
2018-11-11T10:05:25.736Z,1.12
2018-11-11T10:08:55.449Z,1.50
2018-11-11T10:12:35.995Z,2.22
2018-11-11T10:16:10.298Z,1.85
2018-11-11T10:20:40.683Z,1.42
2018-11-11T10:24:41.076Z,1.90
2018-11-11T10:28:08.958Z,1.60
2018-11-11T10:31:44.002Z,1.50
2018-11-11T10:35:13.904Z,2.05
2018-11-11T10:38:44.013Z,1.37
2018-11-11T10:42:13.383Z,1.67
2018-11-11T10:45:56.724Z,2.30
2018-11-11T10:49:25.205Z,1.32
2018-11-11T10:52:50.024Z,1.87
2018-11-11T10:56:14.743Z,1.47
2018-11-11T10:59:39.470Z,1.87
2018-11-11T11:03:08.189Z,1.52
2018-11-11T11:06:38.124Z,2.33
2018-11-11T11:10:02.859Z,2.00
2018-11-11T11:13:28.597Z,1.90
2018-11-11T11:16:53.239Z,2.02
2018-11-11T11:20:17.987Z,2.17
2018-11-11T11:23:42.850Z,1.52
2018-11-11T11:27:07.839Z,1.45
2018-11-11T11:30:32.592Z,4.53
2018-11-11T11:33:57.251Z,2.77
2018-11-11T11:37:21.900Z,1.95
2018-11-11T11:40:46.649Z,2.15
2018-11-11T11:44:11.480Z,1.27
2018-11-11T11:47:36.266Z,2.05
2018-11-11T11:51:00.902Z,2.22
2018-11-11T11:54:25.632Z,1.65
2018-11-11T11:58:22.389Z,1.98
2018-11-11T12:01:47.090Z,1.62
2018-11-11T12:05:11.790Z,2.72
2018-11-11T12:08:36.542Z,2.05
2018-11-11T12:12:01.223Z,2.17
2018-11-11T12:15:25.921Z,2.50
2018-11-11T12:18:50.625Z,1.87
2018-11-11T12:22:15.336Z,2.08
2018-11-11T12:25:40.439Z,2.25
2018-11-11T12:29:05.396Z,2.15
2018-11-11T12:32:30.155Z,2.55
2018-11-11T12:35:54.860Z,1.80
2018-11-11T12:39:19.735Z,2.10
2018-11-11T12:42:44.675Z,1.85
2018-11-11T12:46:09.392Z,1.82
2018-11-11T12:49:34.061Z,2.47
2018-11-11T12:52:58.799Z,1.52
2018-11-11T12:56:23.521Z,2.08
2018-11-11T12:59:48.246Z,2.00
2018-11-11T13:03:12.947Z,2.27
2018-11-11T13:06:37.634Z,1.77
2018-11-11T13:10:02.341Z,3.35
2018-11-11T13:13:27.044Z,3.20
2018-11-11T13:16:51.797Z,3.20
2018-11-11T13:20:17.855Z,2.60
2018-11-11T13:23:42.507Z,2.05
2018-11-11T13:27:07.733Z,2.42
2018-11-11T13:30:32.375Z,3.22
2018-11-11T13:33:57.112Z,2.92
2018-11-11T13:37:21.788Z,2.42
2018-11-11T13:40:46.519Z,2.87
2018-11-11T13:44:11.157Z,2.02
2018-11-11T13:47:35.878Z,1.85
2018-11-11T13:51:00.481Z,2.37
2018-11-11T13:54:25.187Z,2.05
2018-11-11T13:57:50.342Z,1.80
2018-11-11T14:01:15.023Z,2.60
2018-11-11T14:04:39.717Z,2.15
2018-11-11T14:08:04.503Z,2.37
2018-11-11T14:11:29.161Z,2.10
2018-11-11T14:14:53.849Z,1.98
2018-11-11T14:18:18.596Z,1.90
2018-11-11T14:21:43.326Z,2.62
2018-11-11T14:25:16.940Z,3.25
2018-11-11T14:28:41.586Z,1.75
2018-11-11T14:32:06.452Z,2.33
2018-11-11T14:35:31.172Z,1.98
2018-11-11T14:38:55.871Z,1.62
2018-11-11T14:42:20.519Z,2.52
2018-11-11T14:45:45.200Z,1.20
2018-11-11T14:49:10.416Z,1.10
2018-11-11T14:52:35.077Z,1.45
2018-11-11T14:55:59.678Z,1.30
2018-11-11T14:59:24.350Z,1.70
2018-11-11T15:03:01.639Z,2.02
2018-11-11T15:06:26.407Z,1.60
2018-11-11T15:09:51.086Z,2.00
2018-11-11T15:13:16.480Z,1.92
2018-11-11T15:16:41.124Z,1.90
2018-11-11T15:20:07.484Z,2.02
2018-11-11T15:23:32.006Z,1.80
2018-11-11T15:26:56.703Z,1.82
2018-11-11T15:30:25.676Z,1.75
2018-11-11T15:33:50.350Z,2.12
2018-11-11T15:37:15.294Z,2.00
2018-11-11T15:40:40.049Z,2.55
2018-11-11T15:44:04.764Z,2.02
2018-11-11T15:47:29.454Z,2.45
2018-11-11T15:50:54.550Z,2.25
2018-11-11T15:54:19.469Z,2.80
2018-11-11T15:57:44.443Z,2.40
2018-11-11T16:01:09.163Z,2.70
2018-11-11T16:04:33.875Z,3.35
2018-11-11T16:07:59.372Z,2.80
2018-11-11T16:11:24.037Z,2.55
2018-11-11T16:14:48.683Z,3.00
2018-11-11T16:18:14.496Z,3.22
2018-11-11T16:21:39.150Z,2.80
2018-11-11T16:25:03.883Z,2.30
2018-11-11T16:28:28.539Z,2.75
2018-11-11T16:31:53.225Z,2.98
2018-11-11T16:35:19.012Z,2.90
2018-11-11T16:38:43.747Z,2.65
2018-11-11T16:42:08.422Z,3.22
2018-11-11T16:45:34.473Z,3.20
2018-11-11T16:48:59.139Z,6.20
2018-11-11T16:52:23.994Z,3.85
2018-11-11T16:55:48.728Z,4.83
2018-11-11T16:59:13.396Z,4.00
2018-11-11T17:02:38.109Z,3.35
2018-11-11T17:06:02.825Z,3.87
2018-11-11T17:09:27.528Z,2.85
2018-11-11T17:12:53.510Z,2.70
2018-11-11T17:16:18.244Z,2.75
2018-11-11T17:19:42.951Z,2.12
2018-11-11T17:23:08.519Z,2.50
2018-11-11T17:26:33.187Z,2.98
2018-11-11T17:29:58.006Z,2.83
2018-11-11T17:33:22.537Z,2.83
2018-11-11T17:36:47.253Z,2.87
2018-11-11T17:40:15.679Z,2.55
2018-11-11T17:43:40.278Z,2.30
2018-11-11T17:47:05.193Z,4.10
2018-11-11T17:50:33.302Z,2.75
2018-11-11T17:53:58.139Z,3.17
2018-11-11T17:57:22.913Z,2.42
2018-11-11T18:00:47.727Z,3.15
2018-11-11T18:04:12.533Z,2.50
2018-11-11T18:07:37.304Z,3.40
2018-11-11T18:11:02.197Z,3.27
2018-11-11T18:14:28.238Z,2.85
2018-11-11T18:17:52.978Z,3.83
2018-11-11T18:21:17.696Z,4.47
2018-11-11T18:24:42.445Z,4.87
2018-11-11T18:28:08.071Z,6.10
2018-11-11T18:31:32.618Z,11.40
2018-11-11T18:34:57.304Z,16.87
2018-11-11T18:38:22.221Z,8.35
2018-11-11T18:41:46.983Z,4.33
2018-11-11T18:45:14.432Z,3.27
2018-11-11T18:48:39.133Z,3.03
2018-11-11T18:52:03.937Z,4.57
2018-11-11T18:55:28.803Z,3.90
2018-11-11T18:58:53.519Z,3.90
2018-11-11T19:02:18.474Z,3.65
2018-11-11T19:05:43.243Z,5.07
2018-11-11T19:09:13.442Z,4.00
2018-11-11T19:12:38.158Z,3.60
2018-11-11T19:16:02.952Z,3.83
2018-11-11T19:19:27.629Z,3.53
2018-11-11T19:22:52.369Z,3.00
2018-11-11T19:26:17.182Z,4.30
2018-11-11T19:29:41.944Z,3.07
2018-11-11T19:33:06.675Z,3.20
2018-11-11T19:36:31.316Z,2.93
2018-11-11T19:39:55.988Z,3.17
2018-11-11T19:43:20.698Z,3.13
2018-11-11T19:46:45.373Z,2.97
2018-11-11T19:50:12.308Z,2.70
2018-11-11T19:53:37.005Z,3.53
2018-11-11T19:57:02.057Z,3.80
2018-11-11T20:00:28.187Z,2.83
2018-11-11T20:03:53.209Z,2.97
2018-11-11T20:07:17.912Z,2.80
2018-11-11T20:10:42.623Z,3.30
2018-11-11T20:14:07.869Z,3.17
2018-11-11T20:17:32.557Z,2.70
2018-11-11T20:20:57.281Z,2.70
2018-11-11T20:24:22.072Z,2.10
2018-11-11T20:27:47.028Z,2.67
2018-11-11T20:31:11.750Z,2.87
2018-11-11T20:34:36.366Z,2.83
2018-11-11T20:38:01.605Z,2.43
2018-11-11T20:41:26.615Z,2.97
2018-11-11T20:44:51.340Z,2.10
2018-11-11T20:48:15.993Z,2.00
2018-11-11T20:51:40.700Z,2.47
2018-11-11T20:55:07.295Z,2.40
2018-11-11T20:58:32.021Z,2.13
2018-11-11T21:01:56.718Z,2.60
2018-11-11T21:05:23.725Z,2.93
2018-11-11T21:08:48.484Z,2.30
2018-11-11T21:12:13.230Z,3.13
2018-11-11T21:15:38.089Z,2.77
2018-11-11T21:19:02.870Z,2.23
2018-11-11T21:22:27.573Z,2.20
2018-11-11T21:25:53.510Z,2.60
2018-11-11T21:29:18.292Z,2.13
2018-11-11T21:32:43.050Z,2.07
2018-11-11T21:36:07.490Z,2.53
2018-11-11T21:39:32.219Z,2.30
2018-11-11T21:42:57.413Z,2.07
2018-11-11T21:46:22.107Z,1.90
2018-11-11T21:49:46.847Z,1.37
2018-11-11T21:53:26.580Z,2.07
2018-11-11T21:56:51.284Z,2.20
2018-11-11T22:00:15.958Z,2.37
2018-11-11T22:03:40.803Z,2.63
2018-11-11T22:07:05.768Z,2.00
2018-11-11T22:10:30.417Z,2.30
2018-11-11T22:13:55.162Z,1.90
2018-11-11T22:17:19.833Z,2.00
2018-11-11T22:20:44.532Z,2.00
2018-11-11T22:24:08.831Z,2.00
2018-11-11T22:27:33.559Z,1.93
2018-11-11T22:30:58.355Z,1.63
2018-11-11T22:34:23.032Z,2.27
2018-11-11T22:37:47.730Z,2.07
2018-11-11T22:41:12.341Z,2.00
2018-11-11T22:44:36.992Z,1.73
2018-11-11T22:48:01.691Z,2.13
2018-11-11T22:51:26.343Z,1.73
2018-11-11T22:54:52.184Z,1.73
2018-11-11T22:58:16.898Z,1.80
2018-11-11T23:01:41.694Z,1.73
2018-11-11T23:05:06.557Z,1.53
2018-11-11T23:08:31.312Z,1.30
2018-11-11T23:11:56.025Z,1.70
2018-11-11T23:15:22.039Z,2.27
2018-11-11T23:18:46.770Z,2.00
2018-11-11T23:22:11.440Z,2.23
2018-11-11T23:25:36.191Z,2.10
2018-11-11T23:29:00.879Z,3.07
2018-11-11T23:32:25.618Z,2.90
2018-11-11T23:35:50.353Z,3.03
2018-11-11T23:39:15.060Z,2.40
2018-11-11T23:42:40.209Z,2.70
2018-11-11T23:46:04.970Z,2.00
2018-11-11T23:49:29.635Z,2.33
2018-11-11T23:52:54.309Z,2.13
2018-11-11T23:56:19.012Z,2.80
2018-11-11T23:59:43.735Z,3.10
